sensor_id;sensor_type;location;lat;lon;timestamp;P1;durP1;ratioP1;P2;durP2;ratioP2
53267;SDS011;39156;51.176;6.738;2023-04-24T00:00:05;36.92;;;35.10;;
53267;SDS011;39156;51.176;6.738;2023-04-24T00:02:32;37.58;;;35.65;;
53267;SDS011;39156;51.176;6.738;2023-04-24T00:04:58;36.67;;;34.78;;
53267;SDS011;39156;51.176;6.738;2023-04-24T00:07:27;35.75;;;33.90;;
53267;SDS011;39156;51.176;6.738;2023-04-24T00:09:53;35.88;;;34.08;;
53267;SDS011;39156;51.176;6.738;2023-04-24T00:12:19;36.38;;;34.47;;
53267;SDS011;39156;51.176;6.738;2023-04-24T00:14:45;36.80;;;34.90;;
53267;SDS011;39156;51.176;6.738;2023-04-24T00:17:11;37.15;;;35.28;;
53267;SDS011;39156;51.176;6.738;2023-04-24T00:19:36;36.22;;;34.42;;
53267;SDS011;39156;51.176;6.738;2023-04-24T00:22:02;36.38;;;34.55;;
53267;SDS011;39156;51.176;6.738;2023-04-24T00:24:28;35.60;;;33.55;;
53267;SDS011;39156;51.176;6.738;2023-04-24T00:26:54;37.78;;;35.78;;
53267;SDS011;39156;51.176;6.738;2023-04-24T00:29:19;37.08;;;35.17;;
53267;SDS011;39156;51.176;6.738;2023-04-24T00:31:45;37.42;;;35.53;;
53267;SDS011;39156;51.176;6.738;2023-04-24T00:34:11;37.97;;;35.97;;
53267;SDS011;39156;51.176;6.738;2023-04-24T00:36:37;37.33;;;35.33;;
53267;SDS011;39156;51.176;6.738;2023-04-24T00:39:03;36.65;;;34.75;;
53267;SDS011;39156;51.176;6.738;2023-04-24T00:41:29;36.65;;;34.75;;
53267;SDS011;39156;51.176;6.738;2023-04-24T00:43:56;38.45;;;36.53;;
53267;SDS011;39156;51.176;6.738;2023-04-24T00:46:21;36.97;;;35.08;;
53267;SDS011;39156;51.176;6.738;2023-04-24T00:48:47;36.13;;;34.22;;
53267;SDS011;39156;51.176;6.738;2023-04-24T00:51:13;37.22;;;35.25;;
53267;SDS011;39156;51.176;6.738;2023-04-24T00:53:38;38.50;;;36.50;;
53267;SDS011;39156;51.176;6.738;2023-04-24T00:56:04;36.10;;;34.15;;
53267;SDS011;39156;51.176;6.738;2023-04-24T00:58:30;38.60;;;36.70;;
53267;SDS011;39156;51.176;6.738;2023-04-24T01:00:57;36.90;;;34.90;;
53267;SDS011;39156;51.176;6.738;2023-04-24T01:03:24;36.95;;;35.05;;
53267;SDS011;39156;51.176;6.738;2023-04-24T01:05:56;36.50;;;34.40;;
53267;SDS011;39156;51.176;6.738;2023-04-24T01:08:23;38.22;;;36.13;;
53267;SDS011;39156;51.176;6.738;2023-04-24T01:10:52;37.58;;;35.55;;
53267;SDS011;39156;51.176;6.738;2023-04-24T01:13:19;37.78;;;35.65;;
53267;SDS011;39156;51.176;6.738;2023-04-24T01:15:45;37.30;;;35.20;;
53267;SDS011;39156;51.176;6.738;2023-04-24T01:18:12;38.35;;;36.25;;
53267;SDS011;39156;51.176;6.738;2023-04-24T01:20:41;38.65;;;36.55;;
53267;SDS011;39156;51.176;6.738;2023-04-24T01:23:09;38.65;;;36.45;;
53267;SDS011;39156;51.176;6.738;2023-04-24T01:25:36;40.10;;;37.90;;
53267;SDS011;39156;51.176;6.738;2023-04-24T01:28:02;39.28;;;36.97;;
53267;SDS011;39156;51.176;6.738;2023-04-24T01:30:29;40.05;;;37.78;;
53267;SDS011;39156;51.176;6.738;2023-04-24T01:32:55;40.77;;;38.10;;
53267;SDS011;39156;51.176;6.738;2023-04-24T01:35:21;40.25;;;37.90;;
53267;SDS011;39156;51.176;6.738;2023-04-24T01:37:47;39.15;;;36.85;;
53267;SDS011;39156;51.176;6.738;2023-04-24T01:40:12;40.67;;;38.53;;
53267;SDS011;39156;51.176;6.738;2023-04-24T01:42:38;39.42;;;37.03;;
53267;SDS011;39156;51.176;6.738;2023-04-24T01:45:07;40.63;;;38.22;;
53267;SDS011;39156;51.176;6.738;2023-04-24T01:47:37;40.60;;;38.30;;
53267;SDS011;39156;51.176;6.738;2023-04-24T01:50:04;41.38;;;38.85;;
53267;SDS011;39156;51.176;6.738;2023-04-24T01:52:31;41.75;;;39.35;;
53267;SDS011;39156;51.176;6.738;2023-04-24T01:55:01;41.03;;;38.53;;
53267;SDS011;39156;51.176;6.738;2023-04-24T01:57:31;42.00;;;39.08;;
53267;SDS011;39156;51.176;6.738;2023-04-24T01:59:57;41.17;;;38.75;;
53267;SDS011;39156;51.176;6.738;2023-04-24T02:02:23;40.17;;;37.55;;
53267;SDS011;39156;51.176;6.738;2023-04-24T02:04:52;40.42;;;37.92;;
53267;SDS011;39156;51.176;6.738;2023-04-24T02:07:21;41.70;;;39.30;;
53267;SDS011;39156;51.176;6.738;2023-04-24T02:09:46;39.58;;;37.28;;
53267;SDS011;39156;51.176;6.738;2023-04-24T02:12:12;43.20;;;40.47;;
53267;SDS011;39156;51.176;6.738;2023-04-24T02:14:38;42.60;;;40.20;;
53267;SDS011;39156;51.176;6.738;2023-04-24T02:17:04;40.90;;;38.53;;
53267;SDS011;39156;51.176;6.738;2023-04-24T02:19:30;40.03;;;37.72;;
53267;SDS011;39156;51.176;6.738;2023-04-24T02:21:56;41.60;;;39.03;;
53267;SDS011;39156;51.176;6.738;2023-04-24T02:24:21;42.03;;;39.50;;
53267;SDS011;39156;51.176;6.738;2023-04-24T02:26:47;42.97;;;40.42;;
53267;SDS011;39156;51.176;6.738;2023-04-24T02:29:13;42.35;;;39.95;;
53267;SDS011;39156;51.176;6.738;2023-04-24T02:31:39;41.30;;;38.92;;
53267;SDS011;39156;51.176;6.738;2023-04-24T02:34:05;41.13;;;38.83;;
53267;SDS011;39156;51.176;6.738;2023-04-24T02:36:30;42.42;;;39.75;;
53267;SDS011;39156;51.176;6.738;2023-04-24T02:38:56;40.90;;;38.50;;
53267;SDS011;39156;51.176;6.738;2023-04-24T02:41:22;41.17;;;38.47;;
53267;SDS011;39156;51.176;6.738;2023-04-24T02:43:48;40.40;;;38.08;;
53267;SDS011;39156;51.176;6.738;2023-04-24T02:46:13;41.00;;;38.50;;
53267;SDS011;39156;51.176;6.738;2023-04-24T02:48:39;41.22;;;38.75;;
53267;SDS011;39156;51.176;6.738;2023-04-24T02:51:05;40.95;;;38.53;;
53267;SDS011;39156;51.176;6.738;2023-04-24T02:53:31;42.17;;;39.70;;
53267;SDS011;39156;51.176;6.738;2023-04-24T02:55:57;43.33;;;40.72;;
53267;SDS011;39156;51.176;6.738;2023-04-24T02:58:23;42.47;;;39.85;;
53267;SDS011;39156;51.176;6.738;2023-04-24T03:00:53;40.75;;;38.40;;
53267;SDS011;39156;51.176;6.738;2023-04-24T03:03:20;41.50;;;38.92;;
53267;SDS011;39156;51.176;6.738;2023-04-24T03:05:47;44.50;;;41.70;;
53267;SDS011;39156;51.176;6.738;2023-04-24T03:08:12;41.42;;;38.92;;
53267;SDS011;39156;51.176;6.738;2023-04-24T03:10:39;43.47;;;40.70;;
53267;SDS011;39156;51.176;6.738;2023-04-24T03:13:05;42.20;;;39.72;;
53267;SDS011;39156;51.176;6.738;2023-04-24T03:15:30;42.75;;;40.10;;
53267;SDS011;39156;51.176;6.738;2023-04-24T03:17:56;40.15;;;37.75;;
53267;SDS011;39156;51.176;6.738;2023-04-24T03:20:22;41.33;;;38.55;;
53267;SDS011;39156;51.176;6.738;2023-04-24T03:22:48;41.22;;;38.53;;
53267;SDS011;39156;51.176;6.738;2023-04-24T03:25:14;42.92;;;40.22;;
53267;SDS011;39156;51.176;6.738;2023-04-24T03:27:40;40.95;;;38.45;;
53267;SDS011;39156;51.176;6.738;2023-04-24T03:30:06;40.92;;;38.40;;
53267;SDS011;39156;51.176;6.738;2023-04-24T03:32:33;40.75;;;38.22;;
53267;SDS011;39156;51.176;6.738;2023-04-24T03:34:58;41.22;;;38.72;;
53267;SDS011;39156;51.176;6.738;2023-04-24T03:37:24;43.30;;;40.65;;
53267;SDS011;39156;51.176;6.738;2023-04-24T03:39:51;43.10;;;40.50;;
53267;SDS011;39156;51.176;6.738;2023-04-24T03:42:17;41.67;;;39.00;;
53267;SDS011;39156;51.176;6.738;2023-04-24T03:44:43;41.33;;;38.83;;
53267;SDS011;39156;51.176;6.738;2023-04-24T03:47:08;40.80;;;38.28;;
53267;SDS011;39156;51.176;6.738;2023-04-24T03:49:34;42.67;;;39.92;;
53267;SDS011;39156;51.176;6.738;2023-04-24T03:52:00;41.92;;;39.13;;
53267;SDS011;39156;51.176;6.738;2023-04-24T03:54:25;43.58;;;40.58;;
53267;SDS011;39156;51.176;6.738;2023-04-24T03:56:51;41.67;;;39.10;;
53267;SDS011;39156;51.176;6.738;2023-04-24T03:59:17;42.35;;;39.72;;
53267;SDS011;39156;51.176;6.738;2023-04-24T04:01:42;43.22;;;40.72;;
53267;SDS011;39156;51.176;6.738;2023-04-24T04:04:08;41.95;;;39.00;;
53267;SDS011;39156;51.176;6.738;2023-04-24T04:06:34;42.88;;;40.42;;
53267;SDS011;39156;51.176;6.738;2023-04-24T04:09:01;41.08;;;38.47;;
53267;SDS011;39156;51.176;6.738;2023-04-24T04:11:27;40.95;;;38.58;;
53267;SDS011;39156;51.176;6.738;2023-04-24T04:13:52;42.90;;;40.20;;
53267;SDS011;39156;51.176;6.738;2023-04-24T04:16:18;41.67;;;39.17;;
53267;SDS011;39156;51.176;6.738;2023-04-24T04:18:44;43.08;;;40.58;;
53267;SDS011;39156;51.176;6.738;2023-04-24T04:21:10;41.70;;;39.30;;
53267;SDS011;39156;51.176;6.738;2023-04-24T04:23:36;40.13;;;37.78;;
53267;SDS011;39156;51.176;6.738;2023-04-24T04:26:02;40.05;;;37.80;;
53267;SDS011;39156;51.176;6.738;2023-04-24T04:28:29;40.80;;;38.30;;
53267;SDS011;39156;51.176;6.738;2023-04-24T04:30:56;42.88;;;40.38;;
53267;SDS011;39156;51.176;6.738;2023-04-24T04:33:26;43.60;;;40.90;;
53267;SDS011;39156;51.176;6.738;2023-04-24T04:35:52;42.22;;;39.72;;
53267;SDS011;39156;51.176;6.738;2023-04-24T04:38:18;40.63;;;38.20;;
53267;SDS011;39156;51.176;6.738;2023-04-24T04:40:44;42.75;;;40.30;;
53267;SDS011;39156;51.176;6.738;2023-04-24T04:43:10;42.83;;;40.13;;
53267;SDS011;39156;51.176;6.738;2023-04-24T04:45:38;40.92;;;38.42;;
53267;SDS011;39156;51.176;6.738;2023-04-24T04:48:05;40.53;;;38.13;;
53267;SDS011;39156;51.176;6.738;2023-04-24T04:50:32;41.13;;;38.72;;
53267;SDS011;39156;51.176;6.738;2023-04-24T04:52:58;40.65;;;38.30;;
53267;SDS011;39156;51.176;6.738;2023-04-24T04:55:24;39.85;;;37.45;;
53267;SDS011;39156;51.176;6.738;2023-04-24T04:57:50;41.17;;;38.67;;
53267;SDS011;39156;51.176;6.738;2023-04-24T05:00:16;40.92;;;38.53;;
53267;SDS011;39156;51.176;6.738;2023-04-24T05:02:42;40.30;;;37.92;;
53267;SDS011;39156;51.176;6.738;2023-04-24T05:05:08;40.13;;;37.72;;
53267;SDS011;39156;51.176;6.738;2023-04-24T05:07:35;39.35;;;37.13;;
53267;SDS011;39156;51.176;6.738;2023-04-24T05:10:00;39.65;;;37.35;;
53267;SDS011;39156;51.176;6.738;2023-04-24T05:12:26;40.75;;;38.30;;
53267;SDS011;39156;51.176;6.738;2023-04-24T05:14:52;41.38;;;38.88;;
53267;SDS011;39156;51.176;6.738;2023-04-24T05:17:18;40.80;;;38.50;;
53267;SDS011;39156;51.176;6.738;2023-04-24T05:19:44;39.83;;;37.45;;
53267;SDS011;39156;51.176;6.738;2023-04-24T05:22:10;40.78;;;38.38;;
53267;SDS011;39156;51.176;6.738;2023-04-24T05:24:36;42.22;;;39.80;;
53267;SDS011;39156;51.176;6.738;2023-04-24T05:27:02;40.58;;;38.30;;
53267;SDS011;39156;51.176;6.738;2023-04-24T05:29:29;39.22;;;36.92;;
53267;SDS011;39156;51.176;6.738;2023-04-24T05:31:56;40.47;;;37.97;;
53267;SDS011;39156;51.176;6.738;2023-04-24T05:34:22;40.80;;;38.45;;
53267;SDS011;39156;51.176;6.738;2023-04-24T05:36:48;40.67;;;38.33;;
53267;SDS011;39156;51.176;6.738;2023-04-24T05:39:15;39.10;;;36.90;;
53267;SDS011;39156;51.176;6.738;2023-04-24T05:41:41;40.17;;;37.93;;
53267;SDS011;39156;51.176;6.738;2023-04-24T05:44:07;41.58;;;39.00;;
53267;SDS011;39156;51.176;6.738;2023-04-24T05:46:33;40.17;;;37.88;;
53267;SDS011;39156;51.176;6.738;2023-04-24T05:49:01;39.63;;;37.20;;
53267;SDS011;39156;51.176;6.738;2023-04-24T05:51:30;42.13;;;39.63;;
53267;SDS011;39156;51.176;6.738;2023-04-24T05:53:58;39.67;;;37.17;;
53267;SDS011;39156;51.176;6.738;2023-04-24T05:56:24;40.35;;;37.85;;
53267;SDS011;39156;51.176;6.738;2023-04-24T05:58:50;40.05;;;37.78;;
53267;SDS011;39156;51.176;6.738;2023-04-24T06:01:16;40.33;;;37.85;;
53267;SDS011;39156;51.176;6.738;2023-04-24T06:03:41;40.33;;;38.05;;
53267;SDS011;39156;51.176;6.738;2023-04-24T06:06:07;41.42;;;39.13;;
53267;SDS011;39156;51.176;6.738;2023-04-24T06:08:34;42.67;;;40.17;;
53267;SDS011;39156;51.176;6.738;2023-04-24T06:11:00;41.08;;;38.67;;
53267;SDS011;39156;51.176;6.738;2023-04-24T06:13:26;41.92;;;39.60;;
53267;SDS011;39156;51.176;6.738;2023-04-24T06:15:52;40.15;;;37.80;;
53267;SDS011;39156;51.176;6.738;2023-04-24T06:18:18;41.20;;;38.83;;
53267;SDS011;39156;51.176;6.738;2023-04-24T06:20:44;40.28;;;37.92;;
53267;SDS011;39156;51.176;6.738;2023-04-24T06:23:11;39.33;;;37.13;;
53267;SDS011;39156;51.176;6.738;2023-04-24T06:25:37;38.92;;;36.78;;
53267;SDS011;39156;51.176;6.738;2023-04-24T06:28:03;40.42;;;38.13;;
53267;SDS011;39156;51.176;6.738;2023-04-24T06:30:29;38.10;;;36.00;;
53267;SDS011;39156;51.176;6.738;2023-04-24T06:32:55;38.33;;;36.03;;
53267;SDS011;39156;51.176;6.738;2023-04-24T06:35:21;37.97;;;35.97;;
53267;SDS011;39156;51.176;6.738;2023-04-24T06:37:47;39.30;;;36.75;;
53267;SDS011;39156;51.176;6.738;2023-04-24T06:40:12;38.78;;;36.67;;
53267;SDS011;39156;51.176;6.738;2023-04-24T06:42:38;38.78;;;36.67;;
53267;SDS011;39156;51.176;6.738;2023-04-24T06:45:04;37.67;;;35.53;;
53267;SDS011;39156;51.176;6.738;2023-04-24T06:47:30;40.17;;;37.65;;
53267;SDS011;39156;51.176;6.738;2023-04-24T06:49:56;38.13;;;36.03;;
53267;SDS011;39156;51.176;6.738;2023-04-24T06:52:22;40.17;;;37.92;;
53267;SDS011;39156;51.176;6.738;2023-04-24T06:54:48;37.35;;;35.15;;
53267;SDS011;39156;51.176;6.738;2023-04-24T06:57:14;38.70;;;36.50;;
53267;SDS011;39156;51.176;6.738;2023-04-24T06:59:41;37.78;;;35.67;;
53267;SDS011;39156;51.176;6.738;2023-04-24T07:02:07;38.25;;;36.15;;
53267;SDS011;39156;51.176;6.738;2023-04-24T07:04:32;38.83;;;36.58;;
53267;SDS011;39156;51.176;6.738;2023-04-24T07:06:58;38.60;;;36.50;;
53267;SDS011;39156;51.176;6.738;2023-04-24T07:09:25;37.90;;;35.80;;
53267;SDS011;39156;51.176;6.738;2023-04-24T07:11:51;37.92;;;35.92;;
53267;SDS011;39156;51.176;6.738;2023-04-24T07:14:18;39.95;;;37.75;;
53267;SDS011;39156;51.176;6.738;2023-04-24T07:16:44;37.23;;;35.33;;
53267;SDS011;39156;51.176;6.738;2023-04-24T07:19:10;37.45;;;35.45;;
53267;SDS011;39156;51.176;6.738;2023-04-24T07:21:37;36.85;;;34.95;;
53267;SDS011;39156;51.176;6.738;2023-04-24T07:24:02;37.35;;;35.30;;
53267;SDS011;39156;51.176;6.738;2023-04-24T07:26:29;36.22;;;34.35;;
53267;SDS011;39156;51.176;6.738;2023-04-24T07:31:21;36.58;;;34.67;;
53267;SDS011;39156;51.176;6.738;2023-04-24T07:33:47;36.65;;;34.75;;
53267;SDS011;39156;51.176;6.738;2023-04-24T07:36:13;36.15;;;34.25;;
53267;SDS011;39156;51.176;6.738;2023-04-24T07:38:44;37.50;;;35.50;;
53267;SDS011;39156;51.176;6.738;2023-04-24T07:41:11;36.47;;;34.58;;
53267;SDS011;39156;51.176;6.738;2023-04-24T07:46:03;37.88;;;35.97;;
53267;SDS011;39156;51.176;6.738;2023-04-24T07:48:29;36.13;;;34.33;;
53267;SDS011;39156;51.176;6.738;2023-04-24T07:50:55;36.20;;;34.40;;
53267;SDS011;39156;51.176;6.738;2023-04-24T07:53:20;37.03;;;35.13;;
53267;SDS011;39156;51.176;6.738;2023-04-24T07:55:46;35.90;;;34.10;;
53267;SDS011;39156;51.176;6.738;2023-04-24T07:58:12;36.03;;;34.22;;
53267;SDS011;39156;51.176;6.738;2023-04-24T08:00:38;35.95;;;34.15;;
53267;SDS011;39156;51.176;6.738;2023-04-24T08:03:04;36.33;;;34.53;;
53267;SDS011;39156;51.176;6.738;2023-04-24T08:05:29;37.13;;;35.22;;
53267;SDS011;39156;51.176;6.738;2023-04-24T08:07:55;36.33;;;34.47;;
53267;SDS011;39156;51.176;6.738;2023-04-24T08:10:24;37.13;;;35.28;;
53267;SDS011;39156;51.176;6.738;2023-04-24T08:12:50;35.13;;;33.42;;
53267;SDS011;39156;51.176;6.738;2023-04-24T08:15:16;37.78;;;35.78;;
53267;SDS011;39156;51.176;6.738;2023-04-24T08:17:42;36.50;;;34.70;;
53267;SDS011;39156;51.176;6.738;2023-04-24T08:20:08;37.10;;;35.13;;
53267;SDS011;39156;51.176;6.738;2023-04-24T08:22:38;37.75;;;35.80;;
53267;SDS011;39156;51.176;6.738;2023-04-24T08:25:25;38.28;;;36.28;;
53267;SDS011;39156;51.176;6.738;2023-04-24T08:27:51;38.53;;;36.53;;
53267;SDS011;39156;51.176;6.738;2023-04-24T08:30:17;37.63;;;35.63;;
53267;SDS011;39156;51.176;6.738;2023-04-24T08:32:43;38.50;;;36.40;;
53267;SDS011;39156;51.176;6.738;2023-04-24T08:35:09;39.15;;;37.05;;
53267;SDS011;39156;51.176;6.738;2023-04-24T08:37:35;37.72;;;35.42;;
53267;SDS011;39156;51.176;6.738;2023-04-24T08:40:02;37.90;;;35.90;;
53267;SDS011;39156;51.176;6.738;2023-04-24T08:42:39;38.28;;;36.17;;
53267;SDS011;39156;51.176;6.738;2023-04-24T08:45:07;38.30;;;36.10;;
53267;SDS011;39156;51.176;6.738;2023-04-24T08:47:35;38.13;;;36.13;;
53267;SDS011;39156;51.176;6.738;2023-04-24T08:50:02;37.28;;;35.38;;
53267;SDS011;39156;51.176;6.738;2023-04-24T08:52:30;38.72;;;36.67;;
53267;SDS011;39156;51.176;6.738;2023-04-24T08:55:00;37.28;;;35.28;;
53267;SDS011;39156;51.176;6.738;2023-04-24T08:57:26;37.57;;;35.67;;
53267;SDS011;39156;51.176;6.738;2023-04-24T08:59:53;37.95;;;35.90;;
53267;SDS011;39156;51.176;6.738;2023-04-24T09:02:21;37.15;;;35.05;;
53267;SDS011;39156;51.176;6.738;2023-04-24T09:04:48;38.03;;;36.03;;
53267;SDS011;39156;51.176;6.738;2023-04-24T09:07:16;37.47;;;35.58;;
53267;SDS011;39156;51.176;6.738;2023-04-24T09:09:43;37.58;;;35.63;;
53267;SDS011;39156;51.176;6.738;2023-04-24T09:12:09;37.17;;;35.28;;
53267;SDS011;39156;51.176;6.738;2023-04-24T09:14:35;36.97;;;34.97;;
53267;SDS011;39156;51.176;6.738;2023-04-24T09:17:04;39.33;;;36.50;;
53267;SDS011;39156;51.176;6.738;2023-04-24T09:21:57;37.78;;;35.67;;
53267;SDS011;39156;51.176;6.738;2023-04-24T09:24:22;39.90;;;37.55;;
53267;SDS011;39156;51.176;6.738;2023-04-24T09:26:49;39.67;;;37.47;;
53267;SDS011;39156;51.176;6.738;2023-04-24T09:29:23;38.20;;;36.00;;
53267;SDS011;39156;51.176;6.738;2023-04-24T09:31:49;38.78;;;36.67;;
53267;SDS011;39156;51.176;6.738;2023-04-24T09:34:18;37.85;;;35.47;;
53267;SDS011;39156;51.176;6.738;2023-04-24T09:36:47;38.90;;;36.60;;
53267;SDS011;39156;51.176;6.738;2023-04-24T09:39:14;39.90;;;37.60;;
53267;SDS011;39156;51.176;6.738;2023-04-24T09:41:44;39.40;;;37.10;;
53267;SDS011;39156;51.176;6.738;2023-04-24T09:44:14;38.75;;;36.45;;
53267;SDS011;39156;51.176;6.738;2023-04-24T09:46:54;39.67;;;37.17;;
53267;SDS011;39156;51.176;6.738;2023-04-24T09:49:23;40.67;;;38.08;;
53267;SDS011;39156;51.176;6.738;2023-04-24T09:51:50;41.10;;;38.50;;
53267;SDS011;39156;51.176;6.738;2023-04-24T09:54:19;41.45;;;38.95;;
53267;SDS011;39156;51.176;6.738;2023-04-24T09:56:47;39.13;;;36.83;;
53267;SDS011;39156;51.176;6.738;2023-04-24T09:59:17;39.75;;;37.35;;
53267;SDS011;39156;51.176;6.738;2023-04-24T10:01:44;38.50;;;36.13;;
53267;SDS011;39156;51.176;6.738;2023-04-24T10:04:16;39.40;;;36.97;;
53267;SDS011;39156;51.176;6.738;2023-04-24T10:06:50;39.65;;;37.35;;
53267;SDS011;39156;51.176;6.738;2023-04-24T10:09:19;40.72;;;38.08;;
53267;SDS011;39156;51.176;6.738;2023-04-24T10:11:47;39.28;;;36.97;;
53267;SDS011;39156;51.176;6.738;2023-04-24T10:14:16;38.53;;;36.25;;
53267;SDS011;39156;51.176;6.738;2023-04-24T10:16:47;39.78;;;37.38;;
53267;SDS011;39156;51.176;6.738;2023-04-24T10:19:14;39.78;;;37.47;;
53267;SDS011;39156;51.176;6.738;2023-04-24T10:21:42;39.15;;;36.90;;
53267;SDS011;39156;51.176;6.738;2023-04-24T10:24:14;40.35;;;37.78;;
53267;SDS011;39156;51.176;6.738;2023-04-24T10:26:42;39.03;;;36.72;;
53267;SDS011;39156;51.176;6.738;2023-04-24T10:29:13;38.72;;;36.28;;
53267;SDS011;39156;51.176;6.738;2023-04-24T10:31:40;39.08;;;36.70;;
53267;SDS011;39156;51.176;6.738;2023-04-24T10:34:06;40.05;;;37.38;;
53267;SDS011;39156;51.176;6.738;2023-04-24T10:36:34;40.33;;;37.92;;
53267;SDS011;39156;51.176;6.738;2023-04-24T10:39:05;37.63;;;35.33;;
53267;SDS011;39156;51.176;6.738;2023-04-24T10:41:39;38.53;;;36.20;;
53267;SDS011;39156;51.176;6.738;2023-04-24T10:44:05;38.70;;;36.25;;
53267;SDS011;39156;51.176;6.738;2023-04-24T10:46:32;39.75;;;37.42;;
53267;SDS011;39156;51.176;6.738;2023-04-24T10:48:58;38.70;;;36.30;;
53267;SDS011;39156;51.176;6.738;2023-04-24T10:51:24;39.33;;;36.97;;
53267;SDS011;39156;51.176;6.738;2023-04-24T10:54:26;38.38;;;35.95;;
53267;SDS011;39156;51.176;6.738;2023-04-24T11:02:54;37.95;;;35.45;;
53267;SDS011;39156;51.176;6.738;2023-04-24T11:05:22;40.92;;;38.20;;
53267;SDS011;39156;51.176;6.738;2023-04-24T11:10:43;36.83;;;34.28;;
53267;SDS011;39156;51.176;6.738;2023-04-24T11:13:24;37.30;;;34.63;;
53267;SDS011;39156;51.176;6.738;2023-04-24T11:16:19;38.53;;;35.95;;
53267;SDS011;39156;51.176;6.738;2023-04-24T11:19:07;36.75;;;34.45;;
53267;SDS011;39156;51.176;6.738;2023-04-24T11:21:42;38.47;;;36.10;;
53267;SDS011;39156;51.176;6.738;2023-04-24T11:24:27;37.45;;;35.10;;
53267;SDS011;39156;51.176;6.738;2023-04-24T11:29:41;38.55;;;35.88;;
53267;SDS011;39156;51.176;6.738;2023-04-24T11:32:34;36.37;;;34.17;;
53267;SDS011;39156;51.176;6.738;2023-04-24T11:35:02;38.05;;;35.80;;
53267;SDS011;39156;51.176;6.738;2023-04-24T11:37:55;37.63;;;35.00;;
53267;SDS011;39156;51.176;6.738;2023-04-24T11:40:22;37.70;;;35.40;;
53267;SDS011;39156;51.176;6.738;2023-04-24T11:45:26;37.42;;;35.03;;
53267;SDS011;39156;51.176;6.738;2023-04-24T11:47:55;36.75;;;34.38;;
53267;SDS011;39156;51.176;6.738;2023-04-24T11:50:22;37.15;;;34.95;;
53267;SDS011;39156;51.176;6.738;2023-04-24T11:52:54;37.50;;;35.17;;
53267;SDS011;39156;51.176;6.738;2023-04-24T11:57:47;37.15;;;34.75;;
53267;SDS011;39156;51.176;6.738;2023-04-24T12:00:19;38.10;;;35.83;;
53267;SDS011;39156;51.176;6.738;2023-04-24T12:02:47;36.85;;;34.65;;
53267;SDS011;39156;51.176;6.738;2023-04-24T12:07:52;36.50;;;34.22;;
53267;SDS011;39156;51.176;6.738;2023-04-24T12:10:25;37.80;;;35.60;;
53267;SDS011;39156;51.176;6.738;2023-04-24T12:12:53;35.47;;;33.22;;
53267;SDS011;39156;51.176;6.738;2023-04-24T12:15:22;34.72;;;32.63;;
53267;SDS011;39156;51.176;6.738;2023-04-24T12:17:50;38.70;;;36.42;;
53267;SDS011;39156;51.176;6.738;2023-04-24T12:20:17;37.42;;;35.03;;
53267;SDS011;39156;51.176;6.738;2023-04-24T12:22:56;35.28;;;32.88;;
53267;SDS011;39156;51.176;6.738;2023-04-24T12:25:27;36.63;;;34.22;;
53267;SDS011;39156;51.176;6.738;2023-04-24T12:27:55;36.75;;;34.55;;
53267;SDS011;39156;51.176;6.738;2023-04-24T12:30:31;35.30;;;33.00;;
53267;SDS011;39156;51.176;6.738;2023-04-24T12:33:05;35.33;;;33.20;;
53267;SDS011;39156;51.176;6.738;2023-04-24T12:35:31;34.92;;;32.78;;
53267;SDS011;39156;51.176;6.738;2023-04-24T12:38:11;34.58;;;32.53;;
53267;SDS011;39156;51.176;6.738;2023-04-24T12:40:39;33.63;;;31.67;;
53267;SDS011;39156;51.176;6.738;2023-04-24T12:43:13;37.22;;;35.03;;
53267;SDS011;39156;51.176;6.738;2023-04-24T12:45:45;33.42;;;31.58;;
53267;SDS011;39156;51.176;6.738;2023-04-24T12:48:14;34.42;;;32.53;;
53267;SDS011;39156;51.176;6.738;2023-04-24T12:50:40;33.95;;;32.05;;
53267;SDS011;39156;51.176;6.738;2023-04-24T12:53:07;34.28;;;31.98;;
53267;SDS011;39156;51.176;6.738;2023-04-24T12:55:33;33.92;;;32.08;;
53267;SDS011;39156;51.176;6.738;2023-04-24T12:58:00;34.03;;;32.13;;
53267;SDS011;39156;51.176;6.738;2023-04-24T13:00:26;33.78;;;31.98;;
53267;SDS011;39156;51.176;6.738;2023-04-24T13:02:52;33.85;;;31.95;;
53267;SDS011;39156;51.176;6.738;2023-04-24T13:05:21;36.58;;;34.30;;
53267;SDS011;39156;51.176;6.738;2023-04-24T13:07:46;37.33;;;35.22;;
53267;SDS011;39156;51.176;6.738;2023-04-24T13:10:12;34.90;;;32.85;;
53267;SDS011;39156;51.176;6.738;2023-04-24T13:12:38;35.50;;;33.40;;
53267;SDS011;39156;51.176;6.738;2023-04-24T13:15:05;36.17;;;34.17;;
53267;SDS011;39156;51.176;6.738;2023-04-24T13:19:58;37.30;;;35.20;;
53267;SDS011;39156;51.176;6.738;2023-04-24T13:22:24;36.58;;;34.58;;
53267;SDS011;39156;51.176;6.738;2023-04-24T13:24:49;35.25;;;33.33;;
53267;SDS011;39156;51.176;6.738;2023-04-24T13:27:15;36.77;;;34.67;;
53267;SDS011;39156;51.176;6.738;2023-04-24T13:29:42;35.72;;;33.83;;
53267;SDS011;39156;51.176;6.738;2023-04-24T13:32:08;37.22;;;35.22;;
53267;SDS011;39156;51.176;6.738;2023-04-24T13:34:34;36.23;;;33.97;;
53267;SDS011;39156;51.176;6.738;2023-04-24T13:37:00;35.45;;;33.55;;
53267;SDS011;39156;51.176;6.738;2023-04-24T13:41:53;35.15;;;33.15;;
53267;SDS011;39156;51.176;6.738;2023-04-24T13:44:19;36.10;;;33.58;;
53267;SDS011;39156;51.176;6.738;2023-04-24T13:49:14;35.53;;;33.55;;
53267;SDS011;39156;51.176;6.738;2023-04-24T13:51:41;33.83;;;32.03;;
53267;SDS011;39156;51.176;6.738;2023-04-24T13:54:07;37.80;;;35.53;;
53267;SDS011;39156;51.176;6.738;2023-04-24T13:56:33;36.53;;;34.53;;
53267;SDS011;39156;51.176;6.738;2023-04-24T13:58:59;35.13;;;33.08;;
53267;SDS011;39156;51.176;6.738;2023-04-24T14:01:25;36.67;;;34.67;;
53267;SDS011;39156;51.176;6.738;2023-04-24T14:03:51;34.13;;;32.23;;
53267;SDS011;39156;51.176;6.738;2023-04-24T14:06:21;37.05;;;34.95;;
53267;SDS011;39156;51.176;6.738;2023-04-24T14:11:15;36.08;;;33.92;;
53267;SDS011;39156;51.176;6.738;2023-04-24T14:13:41;35.67;;;33.67;;
53267;SDS011;39156;51.176;6.738;2023-04-24T14:16:08;38.17;;;36.05;;
53267;SDS011;39156;51.176;6.738;2023-04-24T14:18:34;35.40;;;33.33;;
53267;SDS011;39156;51.176;6.738;2023-04-24T14:21:01;35.05;;;33.05;;
53267;SDS011;39156;51.176;6.738;2023-04-24T14:23:28;35.70;;;33.42;;
53267;SDS011;39156;51.176;6.738;2023-04-24T14:25:53;34.27;;;32.33;;
53267;SDS011;39156;51.176;6.738;2023-04-24T14:28:19;35.60;;;33.58;;
53267;SDS011;39156;51.176;6.738;2023-04-24T14:30:46;35.30;;;33.33;;
53267;SDS011;39156;51.176;6.738;2023-04-24T14:33:12;34.50;;;32.60;;
53267;SDS011;39156;51.176;6.738;2023-04-24T14:35:39;35.47;;;33.28;;
53267;SDS011;39156;51.176;6.738;2023-04-24T14:38:06;36.35;;;34.20;;
53267;SDS011;39156;51.176;6.738;2023-04-24T14:40:32;33.80;;;31.90;;
53267;SDS011;39156;51.176;6.738;2023-04-24T14:42:58;35.55;;;33.63;;
53267;SDS011;39156;51.176;6.738;2023-04-24T14:45:24;33.93;;;32.13;;
53267;SDS011;39156;51.176;6.738;2023-04-24T14:47:51;34.90;;;32.58;;
53267;SDS011;39156;51.176;6.738;2023-04-24T14:50:17;34.00;;;32.17;;
53267;SDS011;39156;51.176;6.738;2023-04-24T14:52:43;36.17;;;34.03;;
53267;SDS011;39156;51.176;6.738;2023-04-24T14:55:08;34.88;;;32.95;;
53267;SDS011;39156;51.176;6.738;2023-04-24T14:57:34;33.90;;;32.00;;